sensor_id;sensor_type;location;lat;lon;timestamp;P1;durP1;ratioP1;P2;durP2;ratioP2
57842;SDS011;43673;51.058;3.734;2023-04-01T00:00:00;17.77;;;9.00;;
57842;SDS011;43673;51.058;3.734;2023-04-01T00:02:25;20.30;;;8.10;;
57842;SDS011;43673;51.058;3.734;2023-04-01T00:04:51;20.35;;;7.82;;
57842;SDS011;43673;51.058;3.734;2023-04-01T00:07:17;16.27;;;9.02;;
57842;SDS011;43673;51.058;3.734;2023-04-01T00:09:42;20.17;;;9.95;;
57842;SDS011;43673;51.058;3.734;2023-04-01T00:12:08;17.75;;;9.30;;
57842;SDS011;43673;51.058;3.734;2023-04-01T00:14:34;22.38;;;7.93;;
57842;SDS011;43673;51.058;3.734;2023-04-01T00:17:02;14.25;;;7.97;;
57842;SDS011;43673;51.058;3.734;2023-04-01T00:19:27;19.63;;;8.93;;
57842;SDS011;43673;51.058;3.734;2023-04-01T00:21:53;23.77;;;10.60;;
57842;SDS011;43673;51.058;3.734;2023-04-01T00:24:19;25.02;;;9.68;;
57842;SDS011;43673;51.058;3.734;2023-04-01T00:26:44;18.10;;;8.35;;
57842;SDS011;43673;51.058;3.734;2023-04-01T00:29:10;22.63;;;8.43;;
57842;SDS011;43673;51.058;3.734;2023-04-01T00:31:36;18.38;;;8.27;;
57842;SDS011;43673;51.058;3.734;2023-04-01T00:34:01;17.73;;;6.80;;
57842;SDS011;43673;51.058;3.734;2023-04-01T00:36:27;17.10;;;7.82;;
57842;SDS011;43673;51.058;3.734;2023-04-01T00:38:53;19.10;;;7.38;;
57842;SDS011;43673;51.058;3.734;2023-04-01T00:41:19;15.18;;;5.35;;
57842;SDS011;43673;51.058;3.734;2023-04-01T00:43:47;10.38;;;6.07;;
57842;SDS011;43673;51.058;3.734;2023-04-01T00:46:14;14.07;;;6.13;;
57842;SDS011;43673;51.058;3.734;2023-04-01T00:48:58;11.95;;;6.85;;
57842;SDS011;43673;51.058;3.734;2023-04-01T00:51:27;12.95;;;5.50;;
57842;SDS011;43673;51.058;3.734;2023-04-01T00:53:55;11.77;;;5.65;;
57842;SDS011;43673;51.058;3.734;2023-04-01T00:56:24;17.60;;;6.60;;
57842;SDS011;43673;51.058;3.734;2023-04-01T00:58:57;11.70;;;4.80;;
57842;SDS011;43673;51.058;3.734;2023-04-01T01:01:36;9.57;;;4.70;;
57842;SDS011;43673;51.058;3.734;2023-04-01T01:04:02;11.30;;;5.15;;
57842;SDS011;43673;51.058;3.734;2023-04-01T01:09:28;11.05;;;5.85;;
57842;SDS011;43673;51.058;3.734;2023-04-01T01:12:01;11.90;;;5.07;;
57842;SDS011;43673;51.058;3.734;2023-04-01T01:14:49;12.75;;;5.38;;
57842;SDS011;43673;51.058;3.734;2023-04-01T01:20:20;9.60;;;5.47;;
57842;SDS011;43673;51.058;3.734;2023-04-01T01:26:08;11.55;;;6.28;;
57842;SDS011;43673;51.058;3.734;2023-04-01T01:31:34;17.00;;;6.13;;
57842;SDS011;43673;51.058;3.734;2023-04-01T01:36:48;17.60;;;6.22;;
57842;SDS011;43673;51.058;3.734;2023-04-01T01:39:17;22.98;;;6.78;;
57842;SDS011;43673;51.058;3.734;2023-04-01T01:41:45;25.42;;;7.05;;
57842;SDS011;43673;51.058;3.734;2023-04-01T01:44:14;21.90;;;6.97;;
57842;SDS011;43673;51.058;3.734;2023-04-01T01:46:40;16.52;;;7.75;;
57842;SDS011;43673;51.058;3.734;2023-04-01T01:49:09;16.52;;;8.23;;
57842;SDS011;43673;51.058;3.734;2023-04-01T01:51:37;17.63;;;7.75;;
57842;SDS011;43673;51.058;3.734;2023-04-01T01:54:04;25.52;;;7.40;;
57842;SDS011;43673;51.058;3.734;2023-04-01T01:56:29;21.13;;;6.55;;
57842;SDS011;43673;51.058;3.734;2023-04-01T01:59:03;13.68;;;6.22;;
57842;SDS011;43673;51.058;3.734;2023-04-01T02:01:33;21.00;;;8.35;;
57842;SDS011;43673;51.058;3.734;2023-04-01T02:06:30;15.18;;;6.00;;
57842;SDS011;43673;51.058;3.734;2023-04-01T02:09:03;14.52;;;5.78;;
57842;SDS011;43673;51.058;3.734;2023-04-01T02:14:43;15.77;;;5.40;;
57842;SDS011;43673;51.058;3.734;2023-04-01T02:17:31;13.05;;;5.03;;
57842;SDS011;43673;51.058;3.734;2023-04-01T02:19:59;16.10;;;6.18;;
57842;SDS011;43673;51.058;3.734;2023-04-01T02:22:31;11.77;;;5.78;;
57842;SDS011;43673;51.058;3.734;2023-04-01T02:25:10;12.27;;;5.32;;
57842;SDS011;43673;51.058;3.734;2023-04-01T02:27:38;10.82;;;5.15;;
57842;SDS011;43673;51.058;3.734;2023-04-01T02:30:05;14.70;;;6.03;;
57842;SDS011;43673;51.058;3.734;2023-04-01T02:32:32;16.90;;;6.47;;
57842;SDS011;43673;51.058;3.734;2023-04-01T02:35:02;15.18;;;5.70;;
57842;SDS011;43673;51.058;3.734;2023-04-01T02:37:33;10.98;;;5.63;;
57842;SDS011;43673;51.058;3.734;2023-04-01T02:40:03;15.82;;;7.82;;
57842;SDS011;43673;51.058;3.734;2023-04-01T02:42:31;11.00;;;6.22;;
57842;SDS011;43673;51.058;3.734;2023-04-01T02:44:57;17.83;;;7.45;;
57842;SDS011;43673;51.058;3.734;2023-04-01T02:47:23;15.32;;;6.65;;
57842;SDS011;43673;51.058;3.734;2023-04-01T02:49:49;15.65;;;7.45;;
57842;SDS011;43673;51.058;3.734;2023-04-01T02:52:14;20.65;;;7.03;;
57842;SDS011;43673;51.058;3.734;2023-04-01T02:54:40;15.25;;;5.95;;
57842;SDS011;43673;51.058;3.734;2023-04-01T02:57:05;14.18;;;7.13;;
57842;SDS011;43673;51.058;3.734;2023-04-01T02:59:31;11.85;;;6.00;;
57842;SDS011;43673;51.058;3.734;2023-04-01T03:01:57;11.77;;;5.57;;
57842;SDS011;43673;51.058;3.734;2023-04-01T03:04:23;16.92;;;7.50;;
57842;SDS011;43673;51.058;3.734;2023-04-01T03:06:49;9.35;;;6.78;;
57842;SDS011;43673;51.058;3.734;2023-04-01T03:09:16;15.93;;;6.55;;
57842;SDS011;43673;51.058;3.734;2023-04-01T03:11:42;14.93;;;7.38;;
57842;SDS011;43673;51.058;3.734;2023-04-01T03:14:07;12.27;;;6.15;;
57842;SDS011;43673;51.058;3.734;2023-04-01T03:16:33;17.02;;;6.45;;
57842;SDS011;43673;51.058;3.734;2023-04-01T03:18:59;19.75;;;5.70;;
57842;SDS011;43673;51.058;3.734;2023-04-01T03:21:26;13.07;;;6.32;;
57842;SDS011;43673;51.058;3.734;2023-04-01T03:23:52;14.57;;;5.90;;
57842;SDS011;43673;51.058;3.734;2023-04-01T03:26:18;11.95;;;5.10;;
57842;SDS011;43673;51.058;3.734;2023-04-01T03:28:44;16.50;;;5.43;;
57842;SDS011;43673;51.058;3.734;2023-04-01T03:31:10;7.88;;;5.20;;
57842;SDS011;43673;51.058;3.734;2023-04-01T03:33:36;14.10;;;5.35;;
57842;SDS011;43673;51.058;3.734;2023-04-01T03:36:02;11.20;;;4.75;;
57842;SDS011;43673;51.058;3.734;2023-04-01T03:38:31;6.18;;;4.40;;
57842;SDS011;43673;51.058;3.734;2023-04-01T03:40:57;9.73;;;5.65;;
57842;SDS011;43673;51.058;3.734;2023-04-01T03:43:23;10.57;;;4.55;;
57842;SDS011;43673;51.058;3.734;2023-04-01T03:45:50;6.75;;;4.22;;
57842;SDS011;43673;51.058;3.734;2023-04-01T03:48:16;4.45;;;3.30;;
57842;SDS011;43673;51.058;3.734;2023-04-01T03:50:42;10.63;;;4.15;;
57842;SDS011;43673;51.058;3.734;2023-04-01T03:53:09;6.40;;;3.97;;
57842;SDS011;43673;51.058;3.734;2023-04-01T03:55:35;4.57;;;3.53;;
57842;SDS011;43673;51.058;3.734;2023-04-01T03:58:02;9.23;;;3.55;;
57842;SDS011;43673;51.058;3.734;2023-04-01T04:00:29;5.97;;;3.80;;
57842;SDS011;43673;51.058;3.734;2023-04-01T04:02:55;5.75;;;3.38;;
57842;SDS011;43673;51.058;3.734;2023-04-01T04:05:22;4.80;;;4.05;;
57842;SDS011;43673;51.058;3.734;2023-04-01T04:07:51;4.53;;;3.83;;
57842;SDS011;43673;51.058;3.734;2023-04-01T04:10:26;4.90;;;3.90;;
57842;SDS011;43673;51.058;3.734;2023-04-01T04:12:54;7.70;;;4.05;;
57842;SDS011;43673;51.058;3.734;2023-04-01T04:15:20;5.15;;;4.03;;
57842;SDS011;43673;51.058;3.734;2023-04-01T04:17:46;7.68;;;4.07;;
57842;SDS011;43673;51.058;3.734;2023-04-01T04:20:12;8.35;;;4.13;;
57842;SDS011;43673;51.058;3.734;2023-04-01T04:22:38;6.88;;;4.10;;
57842;SDS011;43673;51.058;3.734;2023-04-01T04:25:04;4.97;;;4.30;;
57842;SDS011;43673;51.058;3.734;2023-04-01T04:27:31;8.77;;;4.38;;
57842;SDS011;43673;51.058;3.734;2023-04-01T04:29:57;6.95;;;3.83;;
57842;SDS011;43673;51.058;3.734;2023-04-01T04:32:23;5.40;;;3.70;;
57842;SDS011;43673;51.058;3.734;2023-04-01T04:34:48;4.70;;;2.83;;
57842;SDS011;43673;51.058;3.734;2023-04-01T04:37:14;5.32;;;2.75;;
57842;SDS011;43673;51.058;3.734;2023-04-01T04:39:40;5.03;;;3.35;;
57842;SDS011;43673;51.058;3.734;2023-04-01T04:42:05;5.47;;;3.75;;
57842;SDS011;43673;51.058;3.734;2023-04-01T04:44:31;6.07;;;4.43;;
57842;SDS011;43673;51.058;3.734;2023-04-01T04:46:57;8.23;;;5.22;;
57842;SDS011;43673;51.058;3.734;2023-04-01T04:49:22;11.65;;;5.57;;
57842;SDS011;43673;51.058;3.734;2023-04-01T04:51:48;11.05;;;7.03;;
57842;SDS011;43673;51.058;3.734;2023-04-01T04:54:14;10.48;;;6.22;;
57842;SDS011;43673;51.058;3.734;2023-04-01T04:56:40;12.15;;;6.78;;
57842;SDS011;43673;51.058;3.734;2023-04-01T04:59:06;13.18;;;6.57;;
57842;SDS011;43673;51.058;3.734;2023-04-01T05:01:32;10.05;;;6.22;;
57842;SDS011;43673;51.058;3.734;2023-04-01T05:03:58;10.68;;;6.13;;
57842;SDS011;43673;51.058;3.734;2023-04-01T05:06:24;12.20;;;6.32;;
57842;SDS011;43673;51.058;3.734;2023-04-01T05:08:50;9.32;;;7.07;;
57842;SDS011;43673;51.058;3.734;2023-04-01T05:11:17;11.27;;;6.25;;
57842;SDS011;43673;51.058;3.734;2023-04-01T05:13:44;12.98;;;7.53;;
57842;SDS011;43673;51.058;3.734;2023-04-01T05:16:11;11.90;;;6.68;;
57842;SDS011;43673;51.058;3.734;2023-04-01T05:18:38;11.77;;;6.95;;
57842;SDS011;43673;51.058;3.734;2023-04-01T05:21:06;13.18;;;5.82;;
57842;SDS011;43673;51.058;3.734;2023-04-01T05:23:33;14.38;;;6.10;;
57842;SDS011;43673;51.058;3.734;2023-04-01T05:26:02;10.75;;;4.97;;
57842;SDS011;43673;51.058;3.734;2023-04-01T05:28:28;7.85;;;4.80;;
57842;SDS011;43673;51.058;3.734;2023-04-01T05:30:54;9.25;;;5.57;;
57842;SDS011;43673;51.058;3.734;2023-04-01T05:33:20;11.75;;;5.00;;
57842;SDS011;43673;51.058;3.734;2023-04-01T05:35:45;11.40;;;5.10;;
57842;SDS011;43673;51.058;3.734;2023-04-01T05:38:11;8.00;;;4.93;;
57842;SDS011;43673;51.058;3.734;2023-04-01T05:40:37;7.05;;;4.85;;
57842;SDS011;43673;51.058;3.734;2023-04-01T05:43:02;11.27;;;4.70;;
57842;SDS011;43673;51.058;3.734;2023-04-01T05:45:28;7.10;;;4.25;;
57842;SDS011;43673;51.058;3.734;2023-04-01T05:47:54;7.35;;;5.43;;
57842;SDS011;43673;51.058;3.734;2023-04-01T05:50:19;8.85;;;4.88;;
57842;SDS011;43673;51.058;3.734;2023-04-01T05:52:45;6.55;;;4.60;;
57842;SDS011;43673;51.058;3.734;2023-04-01T05:55:11;7.50;;;3.88;;
57842;SDS011;43673;51.058;3.734;2023-04-01T05:57:37;6.20;;;3.50;;
57842;SDS011;43673;51.058;3.734;2023-04-01T06:00:03;10.30;;;4.28;;
57842;SDS011;43673;51.058;3.734;2023-04-01T06:02:29;8.20;;;3.47;;
57842;SDS011;43673;51.058;3.734;2023-04-01T06:05:15;11.50;;;3.05;;
57842;SDS011;43673;51.058;3.734;2023-04-01T06:07:45;3.10;;;2.75;;
57842;SDS011;43673;51.058;3.734;2023-04-01T06:10:16;4.35;;;2.63;;
57842;SDS011;43673;51.058;3.734;2023-04-01T06:20:50;5.28;;;3.03;;
57842;SDS011;43673;51.058;3.734;2023-04-01T06:24:26;5.30;;;3.45;;
57842;SDS011;43673;51.058;3.734;2023-04-01T06:48:57;2.45;;;1.73;;
57842;SDS011;43673;51.058;3.734;2023-04-01T06:51:37;4.55;;;1.85;;
57842;SDS011;43673;51.058;3.734;2023-04-01T06:54:17;3.60;;;1.80;;
57842;SDS011;43673;51.058;3.734;2023-04-01T06:56:46;2.88;;;2.17;;
57842;SDS011;43673;51.058;3.734;2023-04-01T06:59:30;2.20;;;2.00;;
57842;SDS011;43673;51.058;3.734;2023-04-01T07:04:26;1.92;;;1.60;;
57842;SDS011;43673;51.058;3.734;2023-04-01T07:07:10;2.22;;;1.38;;
57842;SDS011;43673;51.058;3.734;2023-04-01T07:09:53;1.77;;;1.65;;
57842;SDS011;43673;51.058;3.734;2023-04-01T07:14:56;1.77;;;1.40;;
57842;SDS011;43673;51.058;3.734;2023-04-01T07:17:27;4.78;;;1.75;;
57842;SDS011;43673;51.058;3.734;2023-04-01T07:22:32;4.13;;;1.65;;
57842;SDS011;43673;51.058;3.734;2023-04-01T07:25:01;6.22;;;1.88;;
57842;SDS011;43673;51.058;3.734;2023-04-01T07:27:36;2.40;;;1.50;;
57842;SDS011;43673;51.058;3.734;2023-04-01T07:30:13;4.45;;;1.50;;
57842;SDS011;43673;51.058;3.734;2023-04-01T07:32:47;2.15;;;1.55;;
57842;SDS011;43673;51.058;3.734;2023-04-01T07:35:21;1.10;;;0.98;;
57842;SDS011;43673;51.058;3.734;2023-04-01T07:40:45;3.47;;;1.55;;
57842;SDS011;43673;51.058;3.734;2023-04-01T07:49:16;1.38;;;1.27;;
57842;SDS011;43673;51.058;3.734;2023-04-01T07:59:54;4.32;;;1.92;;
57842;SDS011;43673;51.058;3.734;2023-04-01T08:22:04;4.15;;;2.20;;
57842;SDS011;43673;51.058;3.734;2023-04-01T08:24:29;3.03;;;2.53;;
57842;SDS011;43673;51.058;3.734;2023-04-01T08:29:53;4.53;;;2.20;;
57842;SDS011;43673;51.058;3.734;2023-04-01T08:33:11;3.40;;;2.83;;
57842;SDS011;43673;51.058;3.734;2023-04-01T08:37:52;7.28;;;3.20;;
57842;SDS011;43673;51.058;3.734;2023-04-01T08:51:20;4.78;;;3.00;;
57842;SDS011;43673;51.058;3.734;2023-04-01T09:00:00;6.13;;;2.70;;
57842;SDS011;43673;51.058;3.734;2023-04-01T09:16:13;8.93;;;2.65;;
57842;SDS011;43673;51.058;3.734;2023-04-01T09:19:45;3.77;;;1.77;;
57842;SDS011;43673;51.058;3.734;2023-04-01T09:36:45;5.07;;;1.60;;
57842;SDS011;43673;51.058;3.734;2023-04-01T09:39:18;2.92;;;1.92;;
57842;SDS011;43673;51.058;3.734;2023-04-01T09:58:52;4.68;;;1.90;;
57842;SDS011;43673;51.058;3.734;2023-04-01T10:12:41;2.97;;;1.83;;
57842;SDS011;43673;51.058;3.734;2023-04-01T10:21:40;3.58;;;2.10;;
57842;SDS011;43673;51.058;3.734;2023-04-01T10:52:40;1.35;;;1.25;;
57842;SDS011;43673;51.058;3.734;2023-04-01T10:58:45;2.53;;;1.60;;
57842;SDS011;43673;51.058;3.734;2023-04-01T11:10:54;1.20;;;1.10;;
57842;SDS011;43673;51.058;3.734;2023-04-01T11:32:24;2.83;;;1.20;;
57842;SDS011;43673;51.058;3.734;2023-04-01T11:45:47;6.50;;;2.50;;
57842;SDS011;43673;51.058;3.734;2023-04-01T11:51:44;2.83;;;2.50;;
57842;SDS011;43673;51.058;3.734;2023-04-01T11:54:23;5.75;;;2.33;;
57842;SDS011;43673;51.058;3.734;2023-04-01T12:05:02;6.05;;;2.70;;
57842;SDS011;43673;51.058;3.734;2023-04-01T12:10:47;5.88;;;3.38;;
57842;SDS011;43673;51.058;3.734;2023-04-01T12:26:40;5.85;;;2.88;;
57842;SDS011;43673;51.058;3.734;2023-04-01T12:32:23;6.10;;;3.35;;
57842;SDS011;43673;51.058;3.734;2023-04-01T12:46:32;2.03;;;1.50;;
57842;SDS011;43673;51.058;3.734;2023-04-01T12:49:27;3.30;;;1.58;;
57842;SDS011;43673;51.058;3.734;2023-04-01T12:52:25;2.80;;;1.50;;
57842;SDS011;43673;51.058;3.734;2023-04-01T12:55:17;5.40;;;3.50;;
57842;SDS011;43673;51.058;3.734;2023-04-01T13:06:42;1.52;;;1.30;;
57842;SDS011;43673;51.058;3.734;2023-04-01T13:09:38;1.63;;;1.15;;
57842;SDS011;43673;51.058;3.734;2023-04-01T13:26:36;6.05;;;1.83;;
57842;SDS011;43673;51.058;3.734;2023-04-01T13:29:19;3.70;;;2.47;;
57842;SDS011;43673;51.058;3.734;2023-04-01T13:32:18;1.90;;;1.45;;
57842;SDS011;43673;51.058;3.734;2023-04-01T13:37:54;2.88;;;1.70;;
57842;SDS011;43673;51.058;3.734;2023-04-01T13:40:36;2.35;;;1.63;;
57842;SDS011;43673;51.058;3.734;2023-04-01T13:43:24;2.55;;;1.42;;
57842;SDS011;43673;51.058;3.734;2023-04-01T13:54:27;4.95;;;1.88;;
57842;SDS011;43673;51.058;3.734;2023-04-01T14:10:13;4.90;;;2.13;;
57842;SDS011;43673;51.058;3.734;2023-04-01T14:12:49;35.03;;;20.88;;
57842;SDS011;43673;51.058;3.734;2023-04-01T14:15:40;4.63;;;3.58;;
57842;SDS011;43673;51.058;3.734;2023-04-01T14:18:19;3.38;;;2.70;;
57842;SDS011;43673;51.058;3.734;2023-04-01T14:29:29;2.33;;;1.95;;
57842;SDS011;43673;51.058;3.734;2023-04-01T14:46:31;4.13;;;1.80;;
57842;SDS011;43673;51.058;3.734;2023-04-01T14:54:50;2.97;;;1.88;;
57842;SDS011;43673;51.058;3.734;2023-04-01T14:57:23;3.40;;;1.73;;
57842;SDS011;43673;51.058;3.734;2023-04-01T14:59:55;4.90;;;2.70;;
57842;SDS011;43673;51.058;3.734;2023-04-01T15:05:23;3.70;;;1.60;;
57842;SDS011;43673;51.058;3.734;2023-04-01T15:09:02;2.65;;;1.40;;
57842;SDS011;43673;51.058;3.734;2023-04-01T15:10:58;2.53;;;2.10;;
57842;SDS011;43673;51.058;3.734;2023-04-01T15:13:48;5.00;;;2.72;;
57842;SDS011;43673;51.058;3.734;2023-04-01T15:17:13;2.85;;;2.05;;
57842;SDS011;43673;51.058;3.734;2023-04-01T15:25:57;3.30;;;1.65;;
57842;SDS011;43673;51.058;3.734;2023-04-01T15:28:51;3.03;;;1.80;;
57842;SDS011;43673;51.058;3.734;2023-04-01T15:31:36;4.07;;;2.25;;
57842;SDS011;43673;51.058;3.734;2023-04-01T15:42:10;6.78;;;2.45;;
57842;SDS011;43673;51.058;3.734;2023-04-01T15:48:33;2.20;;;2.00;;
57842;SDS011;43673;51.058;3.734;2023-04-01T15:56:06;4.85;;;3.25;;
57842;SDS011;43673;51.058;3.734;2023-04-01T16:01:25;3.15;;;2.67;;
57842;SDS011;43673;51.058;3.734;2023-04-01T16:03:59;4.63;;;2.43;;
57842;SDS011;43673;51.058;3.734;2023-04-01T16:12:19;10.43;;;3.88;;
57842;SDS011;43673;51.058;3.734;2023-04-01T16:15:17;5.03;;;4.03;;
57842;SDS011;43673;51.058;3.734;2023-04-01T16:18:06;6.25;;;3.33;;
57842;SDS011;43673;51.058;3.734;2023-04-01T16:21:08;7.18;;;3.60;;
57842;SDS011;43673;51.058;3.734;2023-04-01T16:23:53;4.65;;;4.03;;
57842;SDS011;43673;51.058;3.734;2023-04-01T16:26:28;5.75;;;3.95;;
57842;SDS011;43673;51.058;3.734;2023-04-01T16:29:12;10.77;;;2.53;;
57842;SDS011;43673;51.058;3.734;2023-04-01T16:35:01;6.22;;;4.15;;
57842;SDS011;43673;51.058;3.734;2023-04-01T16:37:13;4.47;;;3.40;;
57842;SDS011;43673;51.058;3.734;2023-04-01T16:42:50;3.85;;;2.63;;
57842;SDS011;43673;51.058;3.734;2023-04-01T16:45:30;7.72;;;4.70;;
57842;SDS011;43673;51.058;3.734;2023-04-01T16:48:06;9.80;;;4.53;;
57842;SDS011;43673;51.058;3.734;2023-04-01T16:53:41;11.50;;;5.03;;
57842;SDS011;43673;51.058;3.734;2023-04-01T16:56:14;7.43;;;3.60;;
57842;SDS011;43673;51.058;3.734;2023-04-01T17:07:12;9.57;;;4.30;;
57842;SDS011;43673;51.058;3.734;2023-04-01T17:15:46;5.93;;;4.80;;
57842;SDS011;43673;51.058;3.734;2023-04-01T17:22:07;5.90;;;3.63;;
57842;SDS011;43673;51.058;3.734;2023-04-01T17:24:54;6.38;;;3.75;;
57842;SDS011;43673;51.058;3.734;2023-04-01T17:27:27;5.75;;;3.95;;
57842;SDS011;43673;51.058;3.734;2023-04-01T17:33:57;6.03;;;4.00;;
57842;SDS011;43673;51.058;3.734;2023-04-01T17:36:36;5.03;;;2.80;;
57842;SDS011;43673;51.058;3.734;2023-04-01T17:42:22;5.80;;;4.00;;
57842;SDS011;43673;51.058;3.734;2023-04-01T17:45:42;8.20;;;4.65;;
57842;SDS011;43673;51.058;3.734;2023-04-01T17:48:14;11.73;;;4.68;;
57842;SDS011;43673;51.058;3.734;2023-04-01T18:01:17;13.93;;;6.55;;
57842;SDS011;43673;51.058;3.734;2023-04-01T18:04:15;13.20;;;7.78;;
57842;SDS011;43673;51.058;3.734;2023-04-01T18:10:13;11.88;;;7.72;;
57842;SDS011;43673;51.058;3.734;2023-04-01T18:15:49;16.50;;;8.45;;
57842;SDS011;43673;51.058;3.734;2023-04-01T18:18:53;16.67;;;9.90;;
57842;SDS011;43673;51.058;3.734;2023-04-01T18:24:19;32.05;;;15.68;;
57842;SDS011;43673;51.058;3.734;2023-04-01T18:27:36;21.30;;;10.65;;
57842;SDS011;43673;51.058;3.734;2023-04-01T18:29:40;21.65;;;12.85;;
57842;SDS011;43673;51.058;3.734;2023-04-01T18:37:38;24.45;;;13.60;;
57842;SDS011;43673;51.058;3.734;2023-04-01T18:40:24;26.27;;;14.00;;
57842;SDS011;43673;51.058;3.734;2023-04-01T18:43:21;24.15;;;11.57;;
57842;SDS011;43673;51.058;3.734;2023-04-01T18:45:57;25.35;;;11.88;;
57842;SDS011;43673;51.058;3.734;2023-04-01T18:48:39;32.15;;;16.77;;
57842;SDS011;43673;51.058;3.734;2023-04-01T18:51:39;31.27;;;14.07;;
57842;SDS011;43673;51.058;3.734;2023-04-01T18:57:13;22.13;;;12.25;;
57842;SDS011;43673;51.058;3.734;2023-04-01T19:05:08;26.20;;;13.18;;
57842;SDS011;43673;51.058;3.734;2023-04-01T19:07:53;32.97;;;13.57;;
57842;SDS011;43673;51.058;3.734;2023-04-01T19:10:22;28.85;;;12.75;;
57842;SDS011;43673;51.058;3.734;2023-04-01T19:15:44;28.48;;;11.85;;
57842;SDS011;43673;51.058;3.734;2023-04-01T19:20:57;29.85;;;12.05;;
57842;SDS011;43673;51.058;3.734;2023-04-01T19:26:25;25.75;;;11.27;;
57842;SDS011;43673;51.058;3.734;2023-04-01T19:28:56;29.33;;;12.45;;
57842;SDS011;43673;51.058;3.734;2023-04-01T19:34:37;25.70;;;11.30;;
57842;SDS011;43673;51.058;3.734;2023-04-01T19:37:28;30.40;;;11.85;;
57842;SDS011;43673;51.058;3.734;2023-04-01T19:40:13;48.90;;;23.83;;
57842;SDS011;43673;51.058;3.734;2023-04-01T19:42:51;22.30;;;11.73;;
57842;SDS011;43673;51.058;3.734;2023-04-01T19:45:34;34.67;;;10.05;;
57842;SDS011;43673;51.058;3.734;2023-04-01T19:51:03;28.75;;;11.15;;
57842;SDS011;43673;51.058;3.734;2023-04-01T19:53:46;23.75;;;9.60;;
57842;SDS011;43673;51.058;3.734;2023-04-01T19:56:23;21.83;;;9.23;;
57842;SDS011;43673;51.058;3.734;2023-04-01T20:01:41;23.88;;;11.10;;
57842;SDS011;43673;51.058;3.734;2023-04-01T20:04:26;24.73;;;10.27;;
57842;SDS011;43673;51.058;3.734;2023-04-01T20:15:19;30.20;;;11.73;;
57842;SDS011;43673;51.058;3.734;2023-04-01T20:17:53;35.50;;;11.70;;
57842;SDS011;43673;51.058;3.734;2023-04-01T20:20:23;31.15;;;11.77;;
57842;SDS011;43673;51.058;3.734;2023-04-01T20:25:30;23.58;;;12.63;;
57842;SDS011;43673;51.058;3.734;2023-04-01T20:31:02;32.13;;;13.27;;
57842;SDS011;43673;51.058;3.734;2023-04-01T20:36:34;25.95;;;13.05;;
57842;SDS011;43673;51.058;3.734;2023-04-01T20:45:18;29.33;;;13.60;;
57842;SDS011;43673;51.058;3.734;2023-04-01T20:59:29;41.47;;;16.73;;
57842;SDS011;43673;51.058;3.734;2023-04-01T21:05:20;37.97;;;16.15;;
57842;SDS011;43673;51.058;3.734;2023-04-01T21:07:58;44.65;;;17.30;;
57842;SDS011;43673;51.058;3.734;2023-04-01T21:11:16;50.38;;;20.25;;
57842;SDS011;43673;51.058;3.734;2023-04-01T21:28:16;50.08;;;17.80;;
57842;SDS011;43673;51.058;3.734;2023-04-01T21:31:13;41.97;;;18.23;;
57842;SDS011;43673;51.058;3.734;2023-04-01T21:34:03;53.38;;;19.17;;
57842;SDS011;43673;51.058;3.734;2023-04-01T21:45:08;40.10;;;15.88;;
57842;SDS011;43673;51.058;3.734;2023-04-01T21:54:08;40.93;;;17.80;;
57842;SDS011;43673;51.058;3.734;2023-04-01T22:05:22;38.15;;;16.42;;
57842;SDS011;43673;51.058;3.734;2023-04-01T22:08:32;32.70;;;16.98;;
57842;SDS011;43673;51.058;3.734;2023-04-01T22:11:08;47.20;;;18.80;;
57842;SDS011;43673;51.058;3.734;2023-04-01T22:16:31;47.95;;;19.30;;
57842;SDS011;43673;51.058;3.734;2023-04-01T22:21:30;50.85;;;18.85;;
57842;SDS011;43673;51.058;3.734;2023-04-01T22:24:09;52.15;;;19.52;;
57842;SDS011;43673;51.058;3.734;2023-04-01T22:27:10;40.55;;;16.55;;
57842;SDS011;43673;51.058;3.734;2023-04-01T22:32:32;44.08;;;18.35;;
57842;SDS011;43673;51.058;3.734;2023-04-01T22:38:07;34.17;;;17.08;;
57842;SDS011;43673;51.058;3.734;2023-04-01T22:40:37;38.20;;;16.40;;
57842;SDS011;43673;51.058;3.734;2023-04-01T22:43:12;41.83;;;16.75;;
57842;SDS011;43673;51.058;3.734;2023-04-01T22:45:46;42.38;;;18.45;;
57842;SDS011;43673;51.058;3.734;2023-04-01T22:48:36;39.28;;;17.52;;
57842;SDS011;43673;51.058;3.734;2023-04-01T22:56:41;34.67;;;19.17;;
57842;SDS011;43673;51.058;3.734;2023-04-01T22:59:19;38.63;;;18.65;;
57842;SDS011;43673;51.058;3.734;2023-04-01T23:02:06;36.03;;;18.83;;
57842;SDS011;43673;51.058;3.734;2023-04-01T23:04:39;42.60;;;21.38;;
57842;SDS011;43673;51.058;3.734;2023-04-01T23:07:27;54.35;;;19.67;;
57842;SDS011;43673;51.058;3.734;2023-04-01T23:10:49;37.33;;;20.05;;
57842;SDS011;43673;51.058;3.734;2023-04-01T23:13:16;36.97;;;19.58;;
57842;SDS011;43673;51.058;3.734;2023-04-01T23:15:46;38.13;;;20.58;;
57842;SDS011;43673;51.058;3.734;2023-04-01T23:21:11;41.22;;;20.88;;
57842;SDS011;43673;51.058;3.734;2023-04-01T23:23:51;38.70;;;21.23;;
57842;SDS011;43673;51.058;3.734;2023-04-01T23:29:35;49.22;;;22.45;;
57842;SDS011;43673;51.058;3.734;2023-04-01T23:32:04;52.00;;;23.70;;
57842;SDS011;43673;51.058;3.734;2023-04-01T23:34:38;45.00;;;23.60;;
57842;SDS011;43673;51.058;3.734;2023-04-01T23:37:05;50.03;;;24.45;;
57842;SDS011;43673;51.058;3.734;2023-04-01T23:39:41;39.70;;;24.95;;
57842;SDS011;43673;51.058;3.734;2023-04-01T23:42:24;48.38;;;27.13;;
57842;SDS011;43673;51.058;3.734;2023-04-01T23:44:56;41.53;;;26.30;;
57842;SDS011;43673;51.058;3.734;2023-04-01T23:47:45;51.53;;;28.13;;
57842;SDS011;43673;51.058;3.734;2023-04-01T23:50:16;47.90;;;26.30;;
57842;SDS011;43673;51.058;3.734;2023-04-01T23:52:48;53.60;;;27.83;;
57842;SDS011;43673;51.058;3.734;2023-04-01T23:55:24;46.50;;;28.83;;
57842;SDS011;43673;51.058;3.734;2023-04-01T23:58:05;49.07;;;26.53;;
